createdAt,value
2017-05-24T00:00:08.724Z,53.7
2017-05-24T00:01:11.573Z,53.3
2017-05-24T00:02:14.424Z,53.7
2017-05-24T00:03:17.278Z,53.3
2017-05-24T00:04:19.622Z,53.4
2017-05-24T00:05:22.724Z,53.5
2017-05-24T00:06:25.441Z,53.4
2017-05-24T00:07:28.287Z,53.7
2017-05-24T00:08:30.869Z,53.9
2017-05-24T00:09:33.452Z,54.2
2017-05-24T00:10:36.923Z,53.8
2017-05-24T00:11:39.269Z,53.7
2017-05-24T00:12:42.126Z,53.6
2017-05-24T00:13:44.986Z,53.6
2017-05-24T00:14:47.698Z,53.4
2017-05-24T00:15:50.851Z,53.8
2017-05-24T00:16:53.196Z,53.4
2017-05-24T00:17:56.047Z,53.4
2017-05-24T00:18:58.761Z,53.6
2017-05-24T00:20:01.671Z,53.4
2017-05-24T00:21:04.773Z,52.9
2017-05-24T00:22:07.490Z,53.9
2017-05-24T00:23:10.210Z,53.4
2017-05-24T00:24:13.061Z,53.3
2017-05-24T00:25:15.907Z,52.6
2017-05-24T00:26:18.877Z,51.9
2017-05-24T00:27:21.224Z,51.8
2017-05-24T00:28:23.934Z,51.9
2017-05-24T00:29:26.647Z,51.6
2017-05-24T00:30:29.870Z,51.7
2017-05-24T00:31:33.026Z,51.8
2017-05-24T00:32:35.376Z,52
2017-05-24T00:33:38.240Z,51.6
2017-05-24T00:34:41.093Z,51.6
2017-05-24T00:35:43.954Z,51.9
2017-05-24T00:36:46.555Z,52.2
2017-05-24T00:37:49.406Z,52.2
2017-05-24T00:38:52.129Z,51.8
2017-05-24T00:40:57.891Z,51.7
2017-05-24T00:42:00.854Z,51.6
2017-05-24T00:43:03.199Z,51.7
2017-05-24T00:44:05.913Z,51.4
2017-05-24T00:45:08.761Z,52
2017-05-24T00:46:11.478Z,51.7
2017-05-24T00:47:14.581Z,51.9
2017-05-24T00:48:17.428Z,52.2
2017-05-24T00:49:20.006Z,51.4
2017-05-24T00:51:25.631Z,51.6
2017-05-24T00:52:28.733Z,51.4
2017-05-24T00:53:31.084Z,51.5
2017-05-24T00:54:33.939Z,51.7
2017-05-24T00:55:36.787Z,51.5
2017-05-24T00:56:39.641Z,51.4
2017-05-24T00:57:42.751Z,51.3
2017-05-24T00:58:45.099Z,51.2
2017-05-24T00:59:47.820Z,51
2017-05-24T01:01:53.591Z,50.9
2017-05-24T01:03:59.469Z,51.4
2017-05-24T01:05:01.871Z,51.2
2017-05-24T01:06:04.723Z,51.4
2017-05-24T01:07:07.308Z,50.8
2017-05-24T01:08:10.162Z,51.1
2017-05-24T01:09:13.266Z,51.2
2017-05-24T01:10:15.477Z,51.4
2017-05-24T01:11:18.195Z,51.9
2017-05-24T01:13:23.953Z,51.4
2017-05-24T01:14:26.925Z,51.4
2017-05-24T01:15:29.839Z,51.5
2017-05-24T01:17:35.096Z,51.5
2017-05-24T01:18:37.809Z,52.1
2017-05-24T01:19:40.776Z,51.7
2017-05-24T01:20:43.357Z,51.4
2017-05-24T01:21:46.073Z,51.7
2017-05-24T01:22:48.925Z,51.9
2017-05-24T01:23:51.645Z,52.2
2017-05-24T01:24:54.752Z,52.2
2017-05-24T01:25:57.097Z,53
2017-05-24T01:26:59.952Z,52.1
2017-05-24T01:28:02.801Z,52.1
2017-05-24T01:29:05.650Z,52.3
2017-05-24T01:30:08.616Z,52.2
2017-05-24T01:31:11.021Z,52.1
2017-05-24T01:32:13.922Z,52.3
2017-05-24T01:33:16.779Z,52.5
2017-05-24T01:34:19.494Z,52.6
2017-05-24T01:35:22.462Z,52.9
2017-05-24T01:36:25.175Z,52.8
2017-05-24T01:37:27.752Z,52.8
2017-05-24T01:38:30.475Z,53
2017-05-24T01:39:33.056Z,53.2
2017-05-24T01:40:36.162Z,53.2
2017-05-24T01:41:39.012Z,53
2017-05-24T01:43:44.641Z,53.6
2017-05-24T01:44:46.994Z,53.5
2017-05-24T01:45:50.095Z,53.1
2017-05-24T01:46:52.811Z,53.1
2017-05-24T01:47:55.663Z,53.2
2017-05-24T01:48:58.516Z,54.1
2017-05-24T01:50:01.237Z,53.6
2017-05-24T01:51:03.837Z,53.6
2017-05-24T01:52:06.689Z,54
2017-05-24T01:53:09.410Z,54.2
2017-05-24T01:54:12.264Z,54.3
2017-05-24T01:55:15.114Z,54.1
2017-05-24T01:56:17.584Z,54.2
2017-05-24T01:57:20.373Z,54.3
2017-05-24T01:58:23.226Z,54.6
2017-05-24T01:59:26.079Z,55.1
2017-05-24T02:00:28.797Z,54.9
2017-05-24T02:01:31.763Z,54.9
2017-05-24T02:02:34.107Z,55.2
2017-05-24T02:03:36.964Z,55.2
2017-05-24T02:04:39.551Z,55.4
2017-05-24T02:05:42.398Z,55.5
2017-05-24T02:06:45.501Z,55.8
2017-05-24T02:07:47.845Z,56.2
2017-05-24T02:08:50.696Z,56.3
2017-05-24T02:09:53.473Z,56.7
2017-05-24T02:10:56.193Z,56.5
2017-05-24T02:11:59.165Z,56.7
2017-05-24T02:13:02.011Z,56.9
2017-05-24T02:15:07.643Z,57.1
2017-05-24T02:16:10.918Z,57.1
2017-05-24T02:17:13.013Z,56.7
2017-05-24T02:18:15.730Z,57
2017-05-24T02:19:18.450Z,57
2017-05-24T02:20:21.300Z,57.3
2017-05-24T02:21:24.150Z,57.4
2017-05-24T02:22:26.746Z,57.4
2017-05-24T02:23:29.332Z,57.7
2017-05-24T02:24:32.052Z,57.5
2017-05-24T02:25:34.830Z,57.6
2017-05-24T02:26:37.543Z,57.7
2017-05-24T02:27:40.697Z,57.8
2017-05-24T02:28:43.279Z,57.9
2017-05-24T02:29:46.139Z,58.2
2017-05-24T02:30:48.353Z,57.9
2017-05-24T02:31:51.129Z,58.1
2017-05-24T02:32:54.246Z,58.1
2017-05-24T02:33:57.097Z,58.4
2017-05-24T02:34:59.948Z,58.6
2017-05-24T02:36:02.162Z,58.4
2017-05-24T02:37:05.011Z,58.2
2017-05-24T02:39:10.955Z,58.3
2017-05-24T02:40:13.302Z,58.2
2017-05-24T02:41:16.158Z,58.1
2017-05-24T02:42:19.006Z,58.2
2017-05-24T02:43:21.863Z,58.1
2017-05-24T02:44:24.970Z,58.3
2017-05-24T02:45:27.371Z,58
2017-05-24T02:46:30.089Z,57.9
2017-05-24T02:47:32.941Z,57.8
2017-05-24T02:48:35.292Z,57.9
2017-05-24T02:49:38.443Z,58.1
2017-05-24T02:50:41.157Z,58.2
2017-05-24T02:51:43.503Z,57.8
2017-05-24T02:52:46.356Z,58.2
2017-05-24T02:53:49.209Z,57.8
2017-05-24T02:54:52.314Z,58
2017-05-24T02:55:54.528Z,58.2
2017-05-24T02:56:57.374Z,58.3
2017-05-24T02:59:03.197Z,58.6
2017-05-24T03:00:05.790Z,58.3
2017-05-24T03:01:08.285Z,59.2
2017-05-24T03:02:10.995Z,59.5
2017-05-24T03:03:13.843Z,59.4
2017-05-24T03:04:16.421Z,59.5
2017-05-24T03:05:19.756Z,59.5
2017-05-24T03:06:22.105Z,59.2
2017-05-24T03:07:24.949Z,59.1
2017-05-24T03:08:27.799Z,59.1
2017-05-24T03:09:30.377Z,59.1
2017-05-24T03:10:33.473Z,59.1
2017-05-24T03:11:35.820Z,58.9
2017-05-24T03:12:38.667Z,59.1
2017-05-24T03:13:41.513Z,59.4
2017-05-24T03:14:44.090Z,59.1
2017-05-24T03:16:50.020Z,59.1
2017-05-24T03:17:52.367Z,59.3
2017-05-24T03:18:55.212Z,59.3
2017-05-24T03:19:57.923Z,59.2
2017-05-24T03:21:00.631Z,59.5
2017-05-24T03:22:03.734Z,60
2017-05-24T03:23:05.941Z,60
2017-05-24T03:24:08.651Z,60.1
2017-05-24T03:25:11.495Z,60.3
2017-05-24T03:26:14.345Z,60
2017-05-24T03:27:17.454Z,60.3
2017-05-24T03:28:19.857Z,60.1
2017-05-24T03:29:22.704Z,60
2017-05-24T03:30:25.550Z,60
2017-05-24T03:31:27.757Z,59.9
2017-05-24T03:32:31.224Z,59.7
2017-05-24T03:33:33.430Z,59.9
2017-05-24T03:34:36.276Z,60.1
2017-05-24T03:35:39.050Z,60.4
2017-05-24T03:36:41.898Z,61
2017-05-24T03:37:44.859Z,60.4
2017-05-24T03:38:47.439Z,60.6
2017-05-24T03:39:49.789Z,60.2
2017-05-24T03:40:52.642Z,60.3
2017-05-24T03:42:58.665Z,60.3
2017-05-24T03:44:00.879Z,60.6
2017-05-24T03:45:03.456Z,60.5
2017-05-24T03:46:06.167Z,60.5
2017-05-24T03:47:09.014Z,60.6
2017-05-24T03:48:12.111Z,60.5
2017-05-24T03:49:14.825Z,61.3
2017-05-24T03:50:18.080Z,61.3
2017-05-24T03:51:19.916Z,61
2017-05-24T03:52:22.631Z,61.6
2017-05-24T03:53:25.729Z,61.1
2017-05-24T03:54:28.308Z,60.9
2017-05-24T03:55:30.749Z,60.7
2017-05-24T03:56:33.603Z,60.8
2017-05-24T03:57:36.324Z,60.8
2017-05-24T03:58:39.797Z,60.8
2017-05-24T03:59:42.009Z,60.8
2017-05-24T04:00:44.858Z,60.7
2017-05-24T04:01:47.570Z,61.3
2017-05-24T04:02:50.413Z,61.1
2017-05-24T04:03:53.237Z,61.3
2017-05-24T04:04:55.958Z,61.9
2017-05-24T04:05:58.675Z,61.2
2017-05-24T04:07:01.392Z,61.5
2017-05-24T04:08:03.732Z,61.3
2017-05-24T04:09:06.831Z,61.3
2017-05-24T04:10:09.177Z,61.3
2017-05-24T04:11:12.027Z,61.7
2017-05-24T04:12:15.073Z,61.6
2017-05-24T04:13:17.283Z,61.3
2017-05-24T04:14:20.386Z,61.6
2017-05-24T04:15:23.233Z,61.7
2017-05-24T04:16:25.574Z,61.2
2017-05-24T04:17:28.417Z,60.9
2017-05-24T04:18:31.144Z,60.3
2017-05-24T04:19:34.242Z,60.5
2017-05-24T04:20:36.585Z,58.7
2017-05-24T04:21:39.433Z,59.1
2017-05-24T04:22:42.279Z,58
2017-05-24T04:23:44.996Z,56.9
2017-05-24T04:24:48.100Z,56.2
2017-05-24T04:25:50.309Z,56.3
2017-05-24T04:26:53.163Z,56.5
2017-05-24T04:27:56.005Z,56.5
2017-05-24T04:28:58.855Z,56
2017-05-24T04:30:01.814Z,55.6
2017-05-24T04:31:04.161Z,56
2017-05-24T04:32:07.006Z,56.8
2017-05-24T04:33:09.717Z,56.4
2017-05-24T04:34:12.572Z,57.9
2017-05-24T04:35:15.533Z,56.5
2017-05-24T04:36:17.876Z,56
2017-05-24T04:37:20.591Z,56.4
2017-05-24T04:38:23.440Z,56.6
2017-05-24T04:39:26.318Z,57
2017-05-24T04:40:29.417Z,56.3
2017-05-24T04:41:31.624Z,56.2
2017-05-24T04:42:34.838Z,56.5
2017-05-24T04:43:37.550Z,57.1
2017-05-24T04:44:40.393Z,56.7
2017-05-24T04:45:42.915Z,56.7
2017-05-24T04:46:45.760Z,57.1
2017-05-24T04:47:48.609Z,58.5
2017-05-24T04:48:51.320Z,58.8
2017-05-24T04:50:56.878Z,58.5
2017-05-24T04:51:59.726Z,59.2
2017-05-24T04:53:02.434Z,59.5
2017-05-24T04:54:05.153Z,60.2
2017-05-24T04:56:10.528Z,60.1
2017-05-24T04:57:13.377Z,60
2017-05-24T04:58:16.218Z,60.1
2017-05-24T04:59:18.561Z,60.3
2017-05-24T05:00:21.404Z,60
2017-05-24T05:01:24.497Z,59.7
2017-05-24T05:03:29.747Z,59.4
2017-05-24T05:04:32.591Z,59.4
2017-05-24T05:06:37.965Z,60
2017-05-24T05:07:40.809Z,60.4
2017-05-24T05:08:43.665Z,60.7
2017-05-24T05:09:46.509Z,61
2017-05-24T05:10:48.854Z,61
2017-05-24T05:11:51.949Z,61.1
2017-05-24T05:12:54.293Z,61.1
2017-05-24T05:13:57.374Z,60.8
2017-05-24T05:14:59.953Z,60.9
2017-05-24T05:16:02.795Z,61.1
2017-05-24T05:17:05.894Z,61
2017-05-24T05:18:08.239Z,60.3
2017-05-24T05:19:11.091Z,60.2
2017-05-24T05:20:13.941Z,60
2017-05-24T05:21:16.287Z,59.9
2017-05-24T05:22:19.391Z,59.9
2017-05-24T05:23:22.103Z,59.9
2017-05-24T05:24:24.949Z,59.9
2017-05-24T05:25:27.348Z,59.9
2017-05-24T05:26:30.058Z,60
2017-05-24T05:27:32.956Z,60.3
2017-05-24T05:28:35.806Z,60.4
2017-05-24T05:29:38.657Z,60.6
2017-05-24T05:30:41.003Z,60.1
2017-05-24T05:31:43.723Z,60.3
2017-05-24T05:32:47.382Z,60.4
2017-05-24T05:33:49.228Z,60.1
2017-05-24T05:34:52.073Z,60.3
2017-05-24T05:35:54.927Z,60.6
2017-05-24T05:36:57.769Z,60.9
2017-05-24T05:38:00.598Z,60.7
2017-05-24T05:39:02.942Z,61.5
2017-05-24T05:40:05.799Z,61.6
2017-05-24T05:41:08.647Z,61.6
2017-05-24T05:42:11.357Z,61.4
2017-05-24T05:43:14.454Z,61.1
2017-05-24T05:44:16.796Z,60.6
2017-05-24T05:45:19.636Z,60.1
2017-05-24T05:46:22.482Z,60.4
2017-05-24T05:47:25.195Z,60
2017-05-24T05:48:28.163Z,59.6
2017-05-24T05:49:30.235Z,59.5
2017-05-24T05:50:33.082Z,59.7
2017-05-24T05:51:35.927Z,60.1
2017-05-24T05:52:38.777Z,59.8
2017-05-24T05:53:41.876Z,59.5
2017-05-24T05:54:44.222Z,59.9
2017-05-24T05:55:47.071Z,58.5
2017-05-24T05:56:49.921Z,58
2017-05-24T05:57:52.132Z,56.8
2017-05-24T05:58:55.277Z,57.1
2017-05-24T05:59:57.986Z,57.3
2017-05-24T06:01:00.837Z,57
2017-05-24T06:02:03.682Z,56.6
2017-05-24T06:03:06.028Z,56.3
2017-05-24T06:04:09.129Z,57.4
2017-05-24T06:05:11.473Z,57
2017-05-24T06:06:14.322Z,56.6
2017-05-24T06:07:17.173Z,56.5
2017-05-24T06:08:19.881Z,56.2
2017-05-24T06:09:22.985Z,57
2017-05-24T06:10:25.387Z,57
2017-05-24T06:11:28.098Z,56.8
2017-05-24T06:12:30.941Z,56.7
2017-05-24T06:13:33.795Z,56.7
2017-05-24T06:14:36.889Z,56.7
2017-05-24T06:15:39.231Z,57.4
2017-05-24T06:16:41.938Z,57.6
2017-05-24T06:17:44.647Z,57.6
2017-05-24T06:19:50.523Z,58.3
2017-05-24T06:20:52.867Z,58.3
2017-05-24T06:21:55.712Z,57.9
2017-05-24T06:22:58.555Z,58.1
2017-05-24T06:24:01.400Z,57.4
2017-05-24T06:25:03.997Z,57.3
2017-05-24T06:26:06.841Z,57.1
2017-05-24T06:27:09.550Z,56.5
2017-05-24T06:28:12.466Z,56.8
2017-05-24T06:29:14.807Z,57
2017-05-24T06:30:17.909Z,56.7
2017-05-24T06:31:20.622Z,57
2017-05-24T06:32:23.472Z,57.5
2017-05-24T06:33:25.813Z,55.9
2017-05-24T06:34:28.660Z,55.3
2017-05-24T06:35:31.632Z,55.3
2017-05-24T06:36:34.211Z,54.4
2017-05-24T06:37:37.063Z,54
2017-05-24T06:38:39.912Z,54.1
2017-05-24T06:39:42.257Z,54.7
2017-05-24T06:40:45.360Z,54.9
2017-05-24T06:42:50.981Z,55.2
2017-05-24T06:43:53.619Z,55.3
2017-05-24T06:44:56.464Z,55.8
2017-05-24T06:45:59.425Z,56
2017-05-24T06:47:01.636Z,56.2
2017-05-24T06:48:04.486Z,56.8
2017-05-24T06:49:07.333Z,57.1
2017-05-24T06:50:10.046Z,57.1
2017-05-24T06:51:13.140Z,57.1
2017-05-24T06:52:15.480Z,57.2
2017-05-24T06:53:18.190Z,57.1
2017-05-24T06:54:21.046Z,57.2
2017-05-24T06:55:23.758Z,56.7
2017-05-24T06:56:26.853Z,55.9
2017-05-24T06:57:29.433Z,55.9
2017-05-24T06:58:32.145Z,55.3
2017-05-24T06:59:34.991Z,55.2
2017-05-24T07:00:37.843Z,54.7
2017-05-24T07:01:40.446Z,54.4
2017-05-24T07:03:45.568Z,53.6
2017-05-24T07:04:48.284Z,52.9
2017-05-24T07:05:51.597Z,52.5
2017-05-24T07:06:54.189Z,52
2017-05-24T07:07:56.899Z,52.3
2017-05-24T07:08:59.611Z,52
2017-05-24T07:10:02.324Z,51.9
2017-05-24T07:11:05.035Z,52.1
2017-05-24T07:12:08.136Z,51.8
2017-05-24T07:13:10.852Z,51.1
2017-05-24T07:14:13.704Z,49.5
2017-05-24T07:15:16.043Z,49.9
2017-05-24T07:16:18.887Z,49
2017-05-24T07:18:24.894Z,48.9
2017-05-24T07:19:27.606Z,49.3
2017-05-24T07:20:29.947Z,49.8
2017-05-24T07:21:32.789Z,49.7
2017-05-24T07:22:35.501Z,50.1
2017-05-24T07:23:38.601Z,49.5
2017-05-24T07:24:41.458Z,49.1
2017-05-24T07:25:44.169Z,50
2017-05-24T07:27:49.288Z,49.1
2017-05-24T07:28:52.758Z,50
2017-05-24T07:29:55.105Z,48.8
2017-05-24T07:30:57.962Z,48.9
2017-05-24T07:32:00.677Z,48.7
2017-05-24T07:33:03.527Z,49.6
2017-05-24T07:34:06.628Z,48.3
2017-05-24T07:35:08.968Z,49
2017-05-24T07:36:11.683Z,48.7
2017-05-24T07:37:14.895Z,48.9
2017-05-24T07:38:17.238Z,49.1
2017-05-24T07:39:20.387Z,48.6
2017-05-24T07:40:23.237Z,48.1
2017-05-24T07:41:25.583Z,48.1
2017-05-24T07:42:28.429Z,48.9
2017-05-24T07:43:31.151Z,49.4
2017-05-24T07:44:34.249Z,49.5
2017-05-24T07:45:36.963Z,49.3
2017-05-24T07:46:39.815Z,49.7
2017-05-24T07:47:42.664Z,49.1
2017-05-24T07:48:45.515Z,47.4
2017-05-24T07:49:48.476Z,47.6
2017-05-24T07:50:50.817Z,48.1
2017-05-24T07:51:53.661Z,48.2
2017-05-24T07:52:56.510Z,47.8
2017-05-24T07:53:59.919Z,46.8
2017-05-24T07:55:02.374Z,47.3
2017-05-24T07:56:05.085Z,47.5
2017-05-24T07:57:07.802Z,47.3
2017-05-24T07:58:10.514Z,47.7
2017-05-24T07:59:13.415Z,47.2
2017-05-24T08:00:16.521Z,48.2
2017-05-24T08:01:18.863Z,49.1
2017-05-24T08:02:21.730Z,49.5
2017-05-24T08:03:24.441Z,50.2
2017-05-24T08:04:27.286Z,51.1
2017-05-24T08:05:30.384Z,50.6
2017-05-24T08:06:32.589Z,50.6
2017-05-24T08:07:35.303Z,50.7
2017-05-24T08:08:38.153Z,50.5
2017-05-24T08:09:41.006Z,49.2
2017-05-24T08:10:44.159Z,48.2
2017-05-24T08:11:46.501Z,47.4
2017-05-24T08:12:49.354Z,46.6
2017-05-24T08:13:52.203Z,46.1
2017-05-24T08:14:54.916Z,45.8
2017-05-24T08:15:58.248Z,45.1
2017-05-24T08:17:00.592Z,45.5
2017-05-24T08:18:03.221Z,45.1
2017-05-24T08:19:06.122Z,45.2
2017-05-24T08:20:08.969Z,46.2
2017-05-24T08:21:12.072Z,46.3
2017-05-24T08:22:14.924Z,45.3
2017-05-24T08:23:17.269Z,43.5
2017-05-24T08:24:20.116Z,43.8
2017-05-24T08:25:22.964Z,44.4
2017-05-24T08:26:26.058Z,44.6
2017-05-24T08:27:28.769Z,45.1
2017-05-24T08:28:31.485Z,45.8
2017-05-24T08:29:34.329Z,46.5
2017-05-24T08:30:37.045Z,46
2017-05-24T08:31:39.880Z,46.7
2017-05-24T08:32:42.724Z,47.3
2017-05-24T08:33:45.568Z,48.1
2017-05-24T08:35:51.056Z,47.8
2017-05-24T08:36:54.207Z,48.6
2017-05-24T08:37:56.704Z,48.2
2017-05-24T08:38:59.553Z,48.4
2017-05-24T08:40:02.320Z,48.4
2017-05-24T08:41:05.163Z,47.7
2017-05-24T08:42:08.176Z,48.1
2017-05-24T08:44:13.293Z,46.7
2017-05-24T08:45:16.383Z,46.7
2017-05-24T08:46:19.232Z,46
2017-05-24T08:47:22.247Z,44.7
2017-05-24T08:48:24.957Z,45.4
2017-05-24T08:49:27.300Z,46.4
2017-05-24T08:50:30.146Z,46.6
2017-05-24T08:51:32.990Z,47.3
2017-05-24T08:52:35.957Z,47.9
2017-05-24T08:53:38.807Z,47.9
2017-05-24T08:54:41.667Z,47.6
2017-05-24T08:55:44.570Z,46.7
2017-05-24T08:56:46.974Z,46.8
2017-05-24T08:57:50.073Z,46.5
2017-05-24T08:58:52.918Z,46.1
2017-05-24T08:59:55.639Z,45.5
2017-05-24T09:00:58.355Z,45.9
2017-05-24T09:02:01.205Z,44.7
2017-05-24T09:03:04.305Z,44.6
2017-05-24T09:04:06.518Z,43.7
2017-05-24T09:05:09.733Z,42.9
2017-05-24T09:06:12.581Z,43.6
2017-05-24T09:07:15.424Z,42.5
2017-05-24T09:08:18.028Z,42.8
2017-05-24T09:09:20.874Z,43
2017-05-24T09:10:23.464Z,42.6
2017-05-24T09:11:26.309Z,41.9
2017-05-24T09:12:29.022Z,41.4
2017-05-24T09:13:32.174Z,40.8
2017-05-24T09:14:35.026Z,41.2
2017-05-24T09:15:37.733Z,41.1
2017-05-24T09:16:40.583Z,40.8
2017-05-24T09:17:43.429Z,40.7
2017-05-24T09:18:46.530Z,40.7
2017-05-24T09:19:48.875Z,40.3
2017-05-24T09:20:51.722Z,41
2017-05-24T09:21:54.569Z,41.4
2017-05-24T09:22:57.414Z,42.1
2017-05-24T09:24:00.564Z,42
2017-05-24T09:26:05.824Z,41.7
2017-05-24T09:27:08.670Z,40.3
2017-05-24T09:28:11.752Z,40.6
2017-05-24T09:29:14.718Z,40.7
2017-05-24T09:30:17.563Z,41.2
2017-05-24T09:31:20.410Z,41.4
2017-05-24T09:32:23.263Z,40.5
2017-05-24T09:33:26.106Z,39.8
2017-05-24T09:34:29.069Z,39.8
2017-05-24T09:35:31.784Z,40.4
2017-05-24T09:36:34.355Z,41
2017-05-24T09:37:37.441Z,41.4
2017-05-24T09:39:42.958Z,41.9
2017-05-24T09:40:45.818Z,41.8
2017-05-24T09:41:48.665Z,41.4
2017-05-24T09:42:51.514Z,40.7
2017-05-24T09:43:54.234Z,41
2017-05-24T09:44:57.330Z,41.5
2017-05-24T09:46:00.042Z,42.4
2017-05-24T09:47:02.888Z,42.7
2017-05-24T09:48:05.597Z,42.5
2017-05-24T09:49:08.448Z,42.9
2017-05-24T09:50:11.411Z,42.7
2017-05-24T09:51:14.258Z,41.3
2017-05-24T09:52:17.104Z,41.5
2017-05-24T09:53:19.955Z,41.3
2017-05-24T09:54:22.807Z,41
2017-05-24T09:55:25.911Z,40.2
2017-05-24T09:56:28.253Z,40.4
2017-05-24T09:57:31.098Z,40.1
2017-05-24T09:58:33.950Z,39.6
2017-05-24T09:59:36.665Z,39.9
2017-05-24T10:00:40.132Z,41.2
2017-05-24T10:01:42.978Z,40.5
2017-05-24T10:02:45.702Z,41.2
2017-05-24T10:03:48.558Z,41.7
2017-05-24T10:04:51.267Z,42.3
2017-05-24T10:05:54.366Z,42.2
2017-05-24T10:06:57.210Z,42
2017-05-24T10:07:59.648Z,41.8
2017-05-24T10:09:02.495Z,41.5
2017-05-24T10:10:05.713Z,41.2
2017-05-24T10:11:08.726Z,42.4
2017-05-24T10:12:11.069Z,41.5
2017-05-24T10:13:13.915Z,42.1
2017-05-24T10:14:16.756Z,41.6
2017-05-24T10:15:19.970Z,42.3
2017-05-24T10:16:22.568Z,42.5
2017-05-24T10:17:25.417Z,42.9
2017-05-24T10:18:28.265Z,43.2
2017-05-24T10:19:31.114Z,43.5
2017-05-24T10:20:33.825Z,43.8
2017-05-24T10:21:36.919Z,43.2
2017-05-24T10:22:39.626Z,43
2017-05-24T10:23:42.467Z,41.8
2017-05-24T10:24:45.316Z,42.4
2017-05-24T10:25:48.022Z,42.8
2017-05-24T10:26:51.121Z,43
2017-05-24T10:27:53.972Z,43.1
2017-05-24T10:28:56.323Z,43.4
2017-05-24T10:29:59.172Z,43.3
2017-05-24T10:31:02.026Z,43
2017-05-24T10:32:05.123Z,43
2017-05-24T10:33:07.837Z,42.8
2017-05-24T10:34:10.918Z,43.2
2017-05-24T10:35:13.635Z,42.4
2017-05-24T10:36:16.347Z,41.5
2017-05-24T10:37:19.440Z,41.4
2017-05-24T10:38:21.651Z,41.9
2017-05-24T10:39:24.999Z,41.6
2017-05-24T10:40:27.713Z,41
2017-05-24T10:41:30.624Z,41
2017-05-24T10:42:33.768Z,41.2
2017-05-24T10:43:36.108Z,42
2017-05-24T10:44:38.952Z,41.5
2017-05-24T10:45:41.794Z,42
2017-05-24T10:46:44.640Z,41.4
2017-05-24T10:47:47.738Z,41.5
2017-05-24T10:48:50.082Z,41.9
2017-05-24T10:49:52.929Z,42.7
2017-05-24T10:50:56.143Z,41.5
2017-05-24T10:51:58.985Z,41.5
2017-05-24T10:53:01.507Z,40.8
2017-05-24T10:54:04.353Z,41.3
2017-05-24T10:55:07.195Z,41.1
2017-05-24T10:56:10.042Z,40.1
2017-05-24T10:57:12.886Z,40.9
2017-05-24T10:58:15.984Z,41
2017-05-24T10:59:18.190Z,41.1
2017-05-24T11:00:21.536Z,41.1
2017-05-24T11:01:24.378Z,41.8
2017-05-24T11:02:27.095Z,42.5
2017-05-24T11:03:30.204Z,42.8
2017-05-24T11:04:32.563Z,43.1
2017-05-24T11:05:35.277Z,42
2017-05-24T11:06:38.683Z,42.3
2017-05-24T11:07:40.892Z,41.9
2017-05-24T11:08:43.985Z,41.6
2017-05-24T11:09:46.832Z,41.5
2017-05-24T11:10:49.677Z,41
2017-05-24T11:11:52.523Z,40.9
2017-05-24T11:12:55.370Z,40.8
2017-05-24T11:13:58.469Z,41.7
2017-05-24T11:15:00.677Z,40.9
2017-05-24T11:16:03.522Z,41
2017-05-24T11:17:06.371Z,40.9
2017-05-24T11:18:09.216Z,40.3
2017-05-24T11:19:12.314Z,41.1
2017-05-24T11:20:14.656Z,41.1
2017-05-24T11:21:17.500Z,41.1
2017-05-24T11:22:20.350Z,41.7
2017-05-24T11:23:23.199Z,42.1
2017-05-24T11:24:26.161Z,41.7
2017-05-24T11:25:28.881Z,41.2
2017-05-24T11:26:31.727Z,41.7
2017-05-24T11:27:34.440Z,41.6
2017-05-24T11:28:37.656Z,41.1
2017-05-24T11:29:40.615Z,41.1
2017-05-24T11:30:42.693Z,41.7
2017-05-24T11:31:46.048Z,41.7
2017-05-24T11:32:48.898Z,40.2
2017-05-24T11:33:51.742Z,39.7
2017-05-24T11:34:54.362Z,39.2
2017-05-24T11:35:57.214Z,39.5
2017-05-24T11:37:00.055Z,39.7
2017-05-24T11:38:02.668Z,40.2
2017-05-24T11:39:05.384Z,40.6
2017-05-24T11:40:08.352Z,41
2017-05-24T11:41:11.199Z,40
2017-05-24T11:42:14.049Z,40.4
2017-05-24T11:43:16.893Z,39.6
2017-05-24T11:44:19.611Z,38.7
2017-05-24T11:46:25.627Z,39.9
2017-05-24T11:47:27.972Z,40.8
2017-05-24T11:48:30.875Z,41.2
2017-05-24T11:49:33.716Z,41.5
2017-05-24T11:50:36.562Z,41.3
2017-05-24T11:51:39.665Z,41.5
2017-05-24T11:52:42.376Z,42.1
2017-05-24T11:53:45.226Z,41.4
2017-05-24T11:54:48.076Z,41.8
2017-05-24T11:55:50.783Z,41.8
2017-05-24T11:56:53.880Z,41.8
2017-05-24T11:57:56.225Z,40.9
2017-05-24T11:58:59.068Z,41.6
2017-05-24T12:00:01.781Z,41.9
2017-05-24T12:01:05.002Z,42.1
2017-05-24T12:02:07.967Z,42.3
2017-05-24T12:03:10.545Z,41.3
2017-05-24T12:04:13.399Z,41.4
2017-05-24T12:05:16.301Z,41.2
2017-05-24T12:06:19.147Z,41.1
2017-05-24T12:07:21.748Z,41.3
2017-05-24T12:08:24.593Z,41.8
2017-05-24T12:09:27.439Z,40
2017-05-24T12:10:30.291Z,40.7
2017-05-24T12:11:33.139Z,40.5
2017-05-24T12:12:36.103Z,41.3
2017-05-24T12:13:38.678Z,41.3
2017-05-24T12:14:41.520Z,41.2
2017-05-24T12:15:44.370Z,41.3
2017-05-24T12:16:47.220Z,40.7
2017-05-24T12:17:50.334Z,40.9
2017-05-24T12:18:52.675Z,41.2
2017-05-24T12:19:55.528Z,40.1
2017-05-24T12:20:58.374Z,39.8
2017-05-24T12:22:01.061Z,39.2
2017-05-24T12:23:04.163Z,39.6
2017-05-24T12:24:07.007Z,39.5
2017-05-24T12:25:09.716Z,39.5
2017-05-24T12:26:12.561Z,39.3
2017-05-24T12:27:15.277Z,39.9
2017-05-24T12:28:18.441Z,38.7
2017-05-24T12:29:21.153Z,39.3
2017-05-24T12:30:24.000Z,39.7
2017-05-24T12:31:26.578Z,39.9
2017-05-24T12:32:29.288Z,40.1
2017-05-24T12:33:32.756Z,40.2
2017-05-24T12:34:35.101Z,40.5
2017-05-24T12:35:37.954Z,40.9
2017-05-24T12:36:40.799Z,41.2
2017-05-24T12:37:43.513Z,40.6
2017-05-24T12:38:46.483Z,40.5
2017-05-24T12:39:49.333Z,40.3
2017-05-24T12:41:54.962Z,39.7
2017-05-24T12:42:57.807Z,39.4
2017-05-24T12:44:00.906Z,39.8
2017-05-24T12:45:03.116Z,39.9
2017-05-24T12:46:06.206Z,40.5
2017-05-24T12:47:08.789Z,40.8
2017-05-24T12:48:11.695Z,40.6
2017-05-24T12:49:14.528Z,40.8
2017-05-24T12:50:17.235Z,41
2017-05-24T12:51:20.447Z,41.1
2017-05-24T12:52:23.299Z,40.9
2017-05-24T12:53:26.148Z,39.5
2017-05-24T12:54:29.113Z,37.8
2017-05-24T12:55:31.454Z,38.8
2017-05-24T12:56:34.302Z,38.8
2017-05-24T12:57:37.151Z,39.2
2017-05-24T12:59:43.219Z,40.1
2017-05-24T13:00:45.424Z,40.3
2017-05-24T13:01:48.773Z,40.7
2017-05-24T13:02:51.622Z,40.9
2017-05-24T13:03:53.970Z,41.2
2017-05-24T13:04:57.621Z,40.8
2017-05-24T13:05:59.970Z,41
2017-05-24T13:07:02.880Z,40.7
2017-05-24T13:08:05.592Z,40.6
2017-05-24T13:09:08.306Z,40.3
2017-05-24T13:10:11.270Z,40
2017-05-24T13:11:13.977Z,40.6
2017-05-24T13:12:16.821Z,40.4
2017-05-24T13:13:19.538Z,40.4
2017-05-24T13:14:22.255Z,39.7
2017-05-24T13:15:25.219Z,40.5
2017-05-24T13:16:28.173Z,40.8
2017-05-24T13:17:31.018Z,40.5
2017-05-24T13:18:33.862Z,40.5
2017-05-24T13:19:36.577Z,40.4
2017-05-24T13:20:39.675Z,41
2017-05-24T13:21:42.520Z,39.5
2017-05-24T13:22:45.232Z,38.5
2017-05-24T13:23:48.083Z,39.1
2017-05-24T13:24:50.661Z,39.3
2017-05-24T13:25:53.814Z,38.8
2017-05-24T13:26:56.659Z,40.1
2017-05-24T13:27:59.372Z,40.1
2017-05-24T13:29:02.093Z,39.4
2017-05-24T13:30:04.849Z,39.5
2017-05-24T13:31:07.810Z,40
2017-05-24T13:32:10.386Z,40.8
2017-05-24T13:33:13.236Z,40.6
2017-05-24T13:34:16.085Z,40.9
2017-05-24T13:35:18.933Z,41.2
2017-05-24T13:36:22.083Z,41.7
2017-05-24T13:37:24.929Z,40.8
2017-05-24T13:38:27.641Z,40.1
2017-05-24T13:39:30.410Z,39.9
2017-05-24T13:40:33.260Z,39
2017-05-24T13:41:36.357Z,38.7
2017-05-24T13:42:38.701Z,38.3
2017-05-24T13:43:41.549Z,38.6
2017-05-24T13:44:44.264Z,39.1
2017-05-24T13:45:46.983Z,39.5
2017-05-24T13:46:50.581Z,39.9
2017-05-24T13:47:53.167Z,40.1
2017-05-24T13:48:56.001Z,40.6
2017-05-24T13:49:58.854Z,40.8
2017-05-24T13:51:01.435Z,40.6
2017-05-24T13:52:04.548Z,40.7
2017-05-24T13:53:06.887Z,40.3
2017-05-24T13:54:09.736Z,40
2017-05-24T13:55:12.589Z,40.6
2017-05-24T13:56:15.302Z,40.5
2017-05-24T13:57:18.774Z,40.7
2017-05-24T13:58:20.980Z,40.1
2017-05-24T13:59:24.201Z,39.5
2017-05-24T14:00:27.049Z,40
2017-05-24T14:01:29.893Z,40.5
2017-05-24T14:02:32.501Z,41
2017-05-24T14:03:35.349Z,40.8
2017-05-24T14:04:38.196Z,40.9
2017-05-24T14:05:41.041Z,40.5
2017-05-24T14:06:43.947Z,41
2017-05-24T14:07:47.042Z,41.2
2017-05-24T14:08:49.114Z,40.3
2017-05-24T14:09:52.069Z,40.8
2017-05-24T14:10:54.918Z,40.9
2017-05-24T14:11:57.764Z,40.7
2017-05-24T14:13:00.918Z,40
2017-05-24T14:14:03.768Z,40.2
2017-05-24T14:15:06.116Z,40.5
2017-05-24T14:16:08.962Z,40.8
2017-05-24T14:17:11.669Z,40.6
2017-05-24T14:18:15.136Z,40.2
2017-05-24T14:19:17.477Z,40.6
2017-05-24T14:20:20.693Z,40.7
2017-05-24T14:21:23.403Z,40.7
2017-05-24T14:22:26.248Z,41.6
2017-05-24T14:23:29.343Z,40.4
2017-05-24T14:24:31.613Z,41
2017-05-24T14:25:34.455Z,41.6
2017-05-24T14:26:37.537Z,41.7
2017-05-24T14:27:40.385Z,42.1
2017-05-24T14:28:43.485Z,42.3
2017-05-24T14:29:46.204Z,41.7
2017-05-24T14:30:49.049Z,42.1